sensor_id;sensor_type;location;lat;lon;timestamp;P1;durP1;ratioP1;P2;durP2;ratioP2
64716;SDS011;51146;50.274;19.000;2022-07-04T00:01:52;9.60;;;8.60;;
64716;SDS011;51146;50.274;19.000;2022-07-04T00:04:19;11.70;;;7.68;;
64716;SDS011;51146;50.274;19.000;2022-07-04T00:06:46;13.45;;;8.55;;
64716;SDS011;51146;50.274;19.000;2022-07-04T00:09:13;9.32;;;8.43;;
64716;SDS011;51146;50.274;19.000;2022-07-04T00:11:39;11.00;;;8.90;;
64716;SDS011;51146;50.274;19.000;2022-07-04T00:14:06;9.32;;;8.00;;
64716;SDS011;51146;50.274;19.000;2022-07-04T00:16:33;12.80;;;8.50;;
64716;SDS011;51146;50.274;19.000;2022-07-04T00:19:01;10.98;;;8.18;;
64716;SDS011;51146;50.274;19.000;2022-07-04T00:21:30;10.88;;;8.80;;
64716;SDS011;51146;50.274;19.000;2022-07-04T00:23:57;9.93;;;8.90;;
64716;SDS011;51146;50.274;19.000;2022-07-04T00:26:23;11.07;;;8.35;;
64716;SDS011;51146;50.274;19.000;2022-07-04T00:28:50;9.00;;;8.10;;
64716;SDS011;51146;50.274;19.000;2022-07-04T00:31:17;11.38;;;8.90;;
64716;SDS011;51146;50.274;19.000;2022-07-04T00:33:44;10.35;;;8.00;;
64716;SDS011;51146;50.274;19.000;2022-07-04T00:36:10;11.23;;;8.50;;
64716;SDS011;51146;50.274;19.000;2022-07-04T00:38:38;9.50;;;8.32;;
64716;SDS011;51146;50.274;19.000;2022-07-04T00:41:05;9.38;;;8.25;;
64716;SDS011;51146;50.274;19.000;2022-07-04T00:43:31;12.88;;;8.48;;
64716;SDS011;51146;50.274;19.000;2022-07-04T00:46:18;9.77;;;8.77;;
64716;SDS011;51146;50.274;19.000;2022-07-04T00:48:45;10.85;;;8.68;;
64716;SDS011;51146;50.274;19.000;2022-07-04T00:51:11;11.05;;;8.63;;
64716;SDS011;51146;50.274;19.000;2022-07-04T00:53:38;9.88;;;8.00;;
64716;SDS011;51146;50.274;19.000;2022-07-04T00:56:05;12.50;;;8.90;;
64716;SDS011;51146;50.274;19.000;2022-07-04T00:58:32;11.88;;;8.57;;
64716;SDS011;51146;50.274;19.000;2022-07-04T01:01:00;10.40;;;8.68;;
64716;SDS011;51146;50.274;19.000;2022-07-04T01:03:27;12.05;;;9.07;;
64716;SDS011;51146;50.274;19.000;2022-07-04T01:05:54;9.52;;;8.40;;
64716;SDS011;51146;50.274;19.000;2022-07-04T01:08:21;9.05;;;8.23;;
64716;SDS011;51146;50.274;19.000;2022-07-04T01:10:55;9.15;;;8.25;;
64716;SDS011;51146;50.274;19.000;2022-07-04T01:13:22;11.10;;;8.50;;
64716;SDS011;51146;50.274;19.000;2022-07-04T01:15:49;9.85;;;8.85;;
64716;SDS011;51146;50.274;19.000;2022-07-04T01:18:17;10.50;;;9.13;;
64716;SDS011;51146;50.274;19.000;2022-07-04T01:20:44;10.20;;;8.60;;
64716;SDS011;51146;50.274;19.000;2022-07-04T01:23:11;10.93;;;8.73;;
64716;SDS011;51146;50.274;19.000;2022-07-04T01:25:38;12.30;;;8.65;;
64716;SDS011;51146;50.274;19.000;2022-07-04T01:28:05;9.80;;;8.48;;
64716;SDS011;51146;50.274;19.000;2022-07-04T01:30:33;10.18;;;8.98;;
64716;SDS011;51146;50.274;19.000;2022-07-04T01:33:01;10.45;;;8.73;;
64716;SDS011;51146;50.274;19.000;2022-07-04T01:35:28;11.40;;;8.75;;
64716;SDS011;51146;50.274;19.000;2022-07-04T01:37:56;9.88;;;8.48;;
64716;SDS011;51146;50.274;19.000;2022-07-04T01:40:23;10.40;;;9.30;;
64716;SDS011;51146;50.274;19.000;2022-07-04T01:42:50;11.40;;;9.20;;
64716;SDS011;51146;50.274;19.000;2022-07-04T01:45:17;11.25;;;9.50;;
64716;SDS011;51146;50.274;19.000;2022-07-04T01:47:43;10.73;;;9.43;;
64716;SDS011;51146;50.274;19.000;2022-07-04T01:50:10;10.50;;;8.80;;
64716;SDS011;51146;50.274;19.000;2022-07-04T01:52:41;13.27;;;9.68;;
64716;SDS011;51146;50.274;19.000;2022-07-04T01:55:09;14.05;;;10.50;;
64716;SDS011;51146;50.274;19.000;2022-07-04T01:57:37;10.80;;;9.70;;
64716;SDS011;51146;50.274;19.000;2022-07-04T02:00:07;12.50;;;9.35;;
64716;SDS011;51146;50.274;19.000;2022-07-04T02:05:21;12.85;;;10.50;;
64716;SDS011;51146;50.274;19.000;2022-07-04T02:07:48;10.55;;;9.05;;
64716;SDS011;51146;50.274;19.000;2022-07-04T02:10:16;11.18;;;9.70;;
64716;SDS011;51146;50.274;19.000;2022-07-04T02:12:43;11.27;;;9.20;;
64716;SDS011;51146;50.274;19.000;2022-07-04T02:15:29;10.45;;;9.45;;
64716;SDS011;51146;50.274;19.000;2022-07-04T02:18:00;10.35;;;9.25;;
64716;SDS011;51146;50.274;19.000;2022-07-04T02:20:29;11.05;;;9.77;;
64716;SDS011;51146;50.274;19.000;2022-07-04T02:22:56;13.63;;;9.63;;
64716;SDS011;51146;50.274;19.000;2022-07-04T02:25:24;12.18;;;10.00;;
64716;SDS011;51146;50.274;19.000;2022-07-04T02:27:51;12.07;;;9.70;;
64716;SDS011;51146;50.274;19.000;2022-07-04T02:30:18;10.77;;;9.45;;
64716;SDS011;51146;50.274;19.000;2022-07-04T02:32:44;13.25;;;9.70;;
64716;SDS011;51146;50.274;19.000;2022-07-04T02:35:11;13.20;;;10.43;;
64716;SDS011;51146;50.274;19.000;2022-07-04T02:37:39;14.98;;;9.90;;
64716;SDS011;51146;50.274;19.000;2022-07-04T02:40:06;12.52;;;9.52;;
64716;SDS011;51146;50.274;19.000;2022-07-04T02:42:33;11.85;;;9.70;;
64716;SDS011;51146;50.274;19.000;2022-07-04T02:45:02;12.77;;;9.95;;
64716;SDS011;51146;50.274;19.000;2022-07-04T02:47:30;16.13;;;10.82;;
64716;SDS011;51146;50.274;19.000;2022-07-04T02:49:57;14.13;;;10.20;;
64716;SDS011;51146;50.274;19.000;2022-07-04T02:52:24;11.02;;;9.38;;
64716;SDS011;51146;50.274;19.000;2022-07-04T02:54:51;16.65;;;11.10;;
64716;SDS011;51146;50.274;19.000;2022-07-04T02:57:19;12.18;;;9.70;;
64716;SDS011;51146;50.274;19.000;2022-07-04T02:59:46;12.48;;;10.38;;
64716;SDS011;51146;50.274;19.000;2022-07-04T03:02:13;16.20;;;9.98;;
64716;SDS011;51146;50.274;19.000;2022-07-04T03:04:40;16.17;;;9.80;;
64716;SDS011;51146;50.274;19.000;2022-07-04T03:07:07;14.45;;;11.60;;
64716;SDS011;51146;50.274;19.000;2022-07-04T03:09:34;20.88;;;13.65;;
64716;SDS011;51146;50.274;19.000;2022-07-04T03:12:01;19.10;;;10.80;;
64716;SDS011;51146;50.274;19.000;2022-07-04T03:14:28;20.88;;;12.00;;
64716;SDS011;51146;50.274;19.000;2022-07-04T03:16:56;19.70;;;11.80;;
64716;SDS011;51146;50.274;19.000;2022-07-04T03:19:23;15.75;;;10.23;;
64716;SDS011;51146;50.274;19.000;2022-07-04T03:21:50;16.02;;;11.55;;
64716;SDS011;51146;50.274;19.000;2022-07-04T03:24:17;14.73;;;11.38;;
64716;SDS011;51146;50.274;19.000;2022-07-04T03:26:43;14.13;;;10.70;;
64716;SDS011;51146;50.274;19.000;2022-07-04T03:29:10;18.98;;;11.80;;
64716;SDS011;51146;50.274;19.000;2022-07-04T03:31:37;20.58;;;11.32;;
64716;SDS011;51146;50.274;19.000;2022-07-04T03:34:04;14.80;;;11.40;;
64716;SDS011;51146;50.274;19.000;2022-07-04T03:36:30;17.15;;;11.35;;
64716;SDS011;51146;50.274;19.000;2022-07-04T03:38:57;13.65;;;10.85;;
64716;SDS011;51146;50.274;19.000;2022-07-04T03:41:24;17.13;;;11.40;;
64716;SDS011;51146;50.274;19.000;2022-07-04T03:43:50;16.33;;;10.88;;
64716;SDS011;51146;50.274;19.000;2022-07-04T03:46:17;17.20;;;11.43;;
64716;SDS011;51146;50.274;19.000;2022-07-04T03:48:44;13.95;;;10.43;;
64716;SDS011;51146;50.274;19.000;2022-07-04T03:51:11;16.45;;;10.70;;
64716;SDS011;51146;50.274;19.000;2022-07-04T03:53:38;12.20;;;10.07;;
64716;SDS011;51146;50.274;19.000;2022-07-04T03:56:05;15.95;;;10.85;;
64716;SDS011;51146;50.274;19.000;2022-07-04T03:58:32;17.30;;;10.93;;
64716;SDS011;51146;50.274;19.000;2022-07-04T04:00:59;14.93;;;11.55;;
64716;SDS011;51146;50.274;19.000;2022-07-04T04:03:27;17.92;;;11.43;;
64716;SDS011;51146;50.274;19.000;2022-07-04T04:06:13;17.23;;;11.55;;
64716;SDS011;51146;50.274;19.000;2022-07-04T04:08:39;19.33;;;11.68;;
64716;SDS011;51146;50.274;19.000;2022-07-04T04:11:06;13.82;;;10.60;;
64716;SDS011;51146;50.274;19.000;2022-07-04T04:13:33;14.55;;;9.98;;
64716;SDS011;51146;50.274;19.000;2022-07-04T04:16:00;12.23;;;10.07;;
64716;SDS011;51146;50.274;19.000;2022-07-04T04:18:27;10.88;;;9.73;;
64716;SDS011;51146;50.274;19.000;2022-07-04T04:20:53;12.30;;;9.95;;
64716;SDS011;51146;50.274;19.000;2022-07-04T04:23:20;13.82;;;10.07;;
64716;SDS011;51146;50.274;19.000;2022-07-04T04:25:47;13.75;;;10.55;;
64716;SDS011;51146;50.274;19.000;2022-07-04T04:28:20;13.52;;;10.93;;
64716;SDS011;51146;50.274;19.000;2022-07-04T04:30:48;17.23;;;11.68;;
64716;SDS011;51146;50.274;19.000;2022-07-04T04:33:16;13.80;;;11.23;;
64716;SDS011;51146;50.274;19.000;2022-07-04T04:35:43;17.05;;;12.35;;
64716;SDS011;51146;50.274;19.000;2022-07-04T04:38:10;17.50;;;11.68;;
64716;SDS011;51146;50.274;19.000;2022-07-04T04:40:36;14.38;;;10.98;;
64716;SDS011;51146;50.274;19.000;2022-07-04T04:43:03;19.10;;;11.23;;
64716;SDS011;51146;50.274;19.000;2022-07-04T04:45:30;12.13;;;10.80;;
64716;SDS011;51146;50.274;19.000;2022-07-04T04:47:57;12.57;;;10.23;;
64716;SDS011;51146;50.274;19.000;2022-07-04T04:50:24;14.80;;;10.85;;
64716;SDS011;51146;50.274;19.000;2022-07-04T04:52:51;13.20;;;11.27;;
64716;SDS011;51146;50.274;19.000;2022-07-04T04:55:17;13.07;;;10.98;;
64716;SDS011;51146;50.274;19.000;2022-07-04T04:57:44;14.77;;;11.18;;
64716;SDS011;51146;50.274;19.000;2022-07-04T05:00:11;14.10;;;11.18;;
64716;SDS011;51146;50.274;19.000;2022-07-04T05:02:39;15.80;;;10.82;;
64716;SDS011;51146;50.274;19.000;2022-07-04T05:05:06;14.57;;;11.57;;
64716;SDS011;51146;50.274;19.000;2022-07-04T05:07:33;14.93;;;11.07;;
64716;SDS011;51146;50.274;19.000;2022-07-04T05:10:02;14.55;;;11.18;;
64716;SDS011;51146;50.274;19.000;2022-07-04T05:12:29;13.48;;;10.80;;
64716;SDS011;51146;50.274;19.000;2022-07-04T05:14:56;13.93;;;11.57;;
64716;SDS011;51146;50.274;19.000;2022-07-04T05:17:23;14.25;;;11.98;;
64716;SDS011;51146;50.274;19.000;2022-07-04T05:19:50;18.95;;;12.45;;
64716;SDS011;51146;50.274;19.000;2022-07-04T05:22:17;14.88;;;11.98;;
64716;SDS011;51146;50.274;19.000;2022-07-04T05:24:44;14.80;;;12.00;;
64716;SDS011;51146;50.274;19.000;2022-07-04T05:27:11;18.85;;;12.48;;
64716;SDS011;51146;50.274;19.000;2022-07-04T05:29:38;15.02;;;11.77;;
64716;SDS011;51146;50.274;19.000;2022-07-04T05:32:05;16.35;;;12.35;;
64716;SDS011;51146;50.274;19.000;2022-07-04T05:34:32;20.88;;;12.43;;
64716;SDS011;51146;50.274;19.000;2022-07-04T05:37:02;15.48;;;12.55;;
64716;SDS011;51146;50.274;19.000;2022-07-04T05:39:29;16.55;;;13.00;;
64716;SDS011;51146;50.274;19.000;2022-07-04T05:41:57;15.73;;;11.48;;
64716;SDS011;51146;50.274;19.000;2022-07-04T05:44:30;19.20;;;12.85;;
64716;SDS011;51146;50.274;19.000;2022-07-04T05:46:57;16.75;;;12.55;;
64716;SDS011;51146;50.274;19.000;2022-07-04T05:49:24;13.43;;;11.60;;
64716;SDS011;51146;50.274;19.000;2022-07-04T05:51:52;17.15;;;13.73;;
64716;SDS011;51146;50.274;19.000;2022-07-04T05:54:19;16.67;;;12.60;;
64716;SDS011;51146;50.274;19.000;2022-07-04T05:56:45;20.95;;;12.65;;
64716;SDS011;51146;50.274;19.000;2022-07-04T05:59:12;18.65;;;13.25;;
64716;SDS011;51146;50.274;19.000;2022-07-04T06:01:40;17.75;;;13.27;;
64716;SDS011;51146;50.274;19.000;2022-07-04T06:04:07;19.38;;;13.35;;
64716;SDS011;51146;50.274;19.000;2022-07-04T06:06:36;17.75;;;12.82;;
64716;SDS011;51146;50.274;19.000;2022-07-04T06:09:03;18.88;;;13.82;;
64716;SDS011;51146;50.274;19.000;2022-07-04T06:11:30;20.40;;;12.73;;
64716;SDS011;51146;50.274;19.000;2022-07-04T06:13:57;14.57;;;12.02;;
64716;SDS011;51146;50.274;19.000;2022-07-04T06:16:24;17.30;;;13.70;;
64716;SDS011;51146;50.274;19.000;2022-07-04T06:18:51;17.48;;;11.90;;
64716;SDS011;51146;50.274;19.000;2022-07-04T06:21:18;19.30;;;13.88;;
64716;SDS011;51146;50.274;19.000;2022-07-04T06:23:44;15.38;;;12.55;;
64716;SDS011;51146;50.274;19.000;2022-07-04T06:26:11;16.15;;;13.38;;
64716;SDS011;51146;50.274;19.000;2022-07-04T06:28:38;19.40;;;13.27;;
64716;SDS011;51146;50.274;19.000;2022-07-04T06:31:13;15.40;;;12.38;;
64716;SDS011;51146;50.274;19.000;2022-07-04T06:33:41;15.50;;;12.57;;
64716;SDS011;51146;50.274;19.000;2022-07-04T06:36:27;14.68;;;12.13;;
64716;SDS011;51146;50.274;19.000;2022-07-04T06:38:54;15.95;;;13.10;;
64716;SDS011;51146;50.274;19.000;2022-07-04T06:41:20;14.05;;;11.88;;
64716;SDS011;51146;50.274;19.000;2022-07-04T06:43:47;15.52;;;13.23;;
64716;SDS011;51146;50.274;19.000;2022-07-04T06:46:14;14.70;;;12.73;;
64716;SDS011;51146;50.274;19.000;2022-07-04T06:48:41;19.98;;;12.43;;
64716;SDS011;51146;50.274;19.000;2022-07-04T06:51:09;14.60;;;12.60;;
64716;SDS011;51146;50.274;19.000;2022-07-04T06:53:36;14.05;;;12.07;;
64716;SDS011;51146;50.274;19.000;2022-07-04T06:56:03;14.85;;;11.77;;
64716;SDS011;51146;50.274;19.000;2022-07-04T06:58:30;15.43;;;11.45;;
64716;SDS011;51146;50.274;19.000;2022-07-04T07:00:56;15.15;;;11.57;;
64716;SDS011;51146;50.274;19.000;2022-07-04T07:03:23;11.55;;;10.25;;
64716;SDS011;51146;50.274;19.000;2022-07-04T07:05:50;16.65;;;12.25;;
64716;SDS011;51146;50.274;19.000;2022-07-04T07:08:26;14.68;;;10.75;;
64716;SDS011;51146;50.274;19.000;2022-07-04T07:10:54;14.73;;;11.07;;
64716;SDS011;51146;50.274;19.000;2022-07-04T07:13:21;14.70;;;11.88;;
64716;SDS011;51146;50.274;19.000;2022-07-04T07:15:48;14.15;;;11.38;;
64716;SDS011;51146;50.274;19.000;2022-07-04T07:18:15;13.65;;;11.05;;
64716;SDS011;51146;50.274;19.000;2022-07-04T07:20:42;13.18;;;10.70;;
64716;SDS011;51146;50.274;19.000;2022-07-04T07:23:10;14.35;;;10.27;;
64716;SDS011;51146;50.274;19.000;2022-07-04T07:25:37;10.77;;;9.45;;
64716;SDS011;51146;50.274;19.000;2022-07-04T07:28:03;14.40;;;10.25;;
64716;SDS011;51146;50.274;19.000;2022-07-04T08:24:37;10.07;;;8.32;;
64716;SDS011;51146;50.274;19.000;2022-07-04T08:27:03;9.63;;;8.35;;
64716;SDS011;51146;50.274;19.000;2022-07-04T08:29:30;11.20;;;8.18;;
64716;SDS011;51146;50.274;19.000;2022-07-04T08:31:58;8.65;;;7.75;;
64716;SDS011;51146;50.274;19.000;2022-07-04T08:34:26;10.00;;;8.45;;
64716;SDS011;51146;50.274;19.000;2022-07-04T08:36:52;10.63;;;7.80;;
64716;SDS011;51146;50.274;19.000;2022-07-04T08:39:19;8.00;;;7.25;;
64716;SDS011;51146;50.274;19.000;2022-07-04T08:41:56;9.23;;;7.75;;
64716;SDS011;51146;50.274;19.000;2022-07-04T08:44:29;8.50;;;7.70;;
64716;SDS011;51146;50.274;19.000;2022-07-04T08:46:57;8.80;;;7.65;;
64716;SDS011;51146;50.274;19.000;2022-07-04T08:49:27;8.30;;;7.50;;
64716;SDS011;51146;50.274;19.000;2022-07-04T08:52:02;7.05;;;6.35;;
64716;SDS011;51146;50.274;19.000;2022-07-04T08:54:32;7.70;;;6.70;;
64716;SDS011;51146;50.274;19.000;2022-07-04T08:57:18;26.92;;;12.48;;
64716;SDS011;51146;50.274;19.000;2022-07-04T09:00:04;13.18;;;8.52;;
64716;SDS011;51146;50.274;19.000;2022-07-04T09:02:33;8.27;;;7.45;;
64716;SDS011;51146;50.274;19.000;2022-07-04T09:05:00;9.68;;;8.65;;
64716;SDS011;51146;50.274;19.000;2022-07-04T09:07:27;8.77;;;7.88;;
64716;SDS011;51146;50.274;19.000;2022-07-04T09:09:57;10.27;;;8.57;;
64716;SDS011;51146;50.274;19.000;2022-07-04T09:12:24;9.45;;;7.63;;
64716;SDS011;51146;50.274;19.000;2022-07-04T09:14:51;8.38;;;7.45;;
64716;SDS011;51146;50.274;19.000;2022-07-04T09:17:18;7.65;;;6.85;;
64716;SDS011;51146;50.274;19.000;2022-07-04T09:19:45;7.38;;;6.72;;
64716;SDS011;51146;50.274;19.000;2022-07-04T09:22:31;7.93;;;7.10;;
64716;SDS011;51146;50.274;19.000;2022-07-04T09:24:57;7.82;;;7.07;;
64716;SDS011;51146;50.274;19.000;2022-07-04T09:27:31;10.98;;;6.93;;
64716;SDS011;51146;50.274;19.000;2022-07-04T09:30:00;9.20;;;6.30;;
64716;SDS011;51146;50.274;19.000;2022-07-04T09:32:34;6.70;;;6.05;;
64716;SDS011;51146;50.274;19.000;2022-07-04T09:35:11;7.28;;;6.57;;
64716;SDS011;51146;50.274;19.000;2022-07-04T09:37:43;6.93;;;6.10;;
64716;SDS011;51146;50.274;19.000;2022-07-04T09:40:25;10.55;;;6.47;;
64716;SDS011;51146;50.274;19.000;2022-07-04T09:42:56;6.80;;;5.82;;
64716;SDS011;51146;50.274;19.000;2022-07-04T09:45:25;9.23;;;6.18;;
64716;SDS011;51146;50.274;19.000;2022-07-04T09:47:53;8.40;;;5.63;;
64716;SDS011;51146;50.274;19.000;2022-07-04T09:50:25;8.70;;;6.10;;
64716;SDS011;51146;50.274;19.000;2022-07-04T09:58:04;9.70;;;5.68;;
64716;SDS011;51146;50.274;19.000;2022-07-04T10:00:38;7.20;;;5.72;;
64716;SDS011;51146;50.274;19.000;2022-07-04T10:05:45;7.10;;;4.70;;
64716;SDS011;51146;50.274;19.000;2022-07-04T10:08:20;5.55;;;5.07;;
64716;SDS011;51146;50.274;19.000;2022-07-04T10:10:47;5.10;;;4.38;;
64716;SDS011;51146;50.274;19.000;2022-07-04T10:13:14;4.95;;;4.45;;
64716;SDS011;51146;50.274;19.000;2022-07-04T10:15:41;5.28;;;4.45;;
64716;SDS011;51146;50.274;19.000;2022-07-04T10:18:09;6.55;;;4.80;;
64716;SDS011;51146;50.274;19.000;2022-07-04T10:20:36;5.45;;;4.40;;
64716;SDS011;51146;50.274;19.000;2022-07-04T10:23:04;5.73;;;5.17;;
64716;SDS011;51146;50.274;19.000;2022-07-04T10:25:34;7.15;;;4.72;;
64716;SDS011;51146;50.274;19.000;2022-07-04T10:28:02;6.32;;;4.72;;
64716;SDS011;51146;50.274;19.000;2022-07-04T10:30:32;6.80;;;4.90;;
64716;SDS011;51146;50.274;19.000;2022-07-04T10:33:06;5.63;;;4.85;;
64716;SDS011;51146;50.274;19.000;2022-07-04T10:38:22;6.35;;;5.10;;
64716;SDS011;51146;50.274;19.000;2022-07-04T10:51:31;5.15;;;4.60;;
64716;SDS011;51146;50.274;19.000;2022-07-04T10:54:00;7.60;;;5.28;;
64716;SDS011;51146;50.274;19.000;2022-07-04T10:58:56;6.13;;;4.97;;
64716;SDS011;51146;50.274;19.000;2022-07-04T11:01:28;6.57;;;4.40;;
64716;SDS011;51146;50.274;19.000;2022-07-04T11:03:54;4.72;;;4.25;;
64716;SDS011;51146;50.274;19.000;2022-07-04T11:09:13;5.47;;;4.25;;
64716;SDS011;51146;50.274;19.000;2022-07-04T11:11:56;6.63;;;4.00;;
64716;SDS011;51146;50.274;19.000;2022-07-04T11:14:41;4.40;;;3.67;;
64716;SDS011;51146;50.274;19.000;2022-07-04T11:19:46;4.32;;;3.92;;
64716;SDS011;51146;50.274;19.000;2022-07-04T11:22:21;4.45;;;4.05;;
64716;SDS011;51146;50.274;19.000;2022-07-04T11:24:49;6.70;;;4.38;;
64716;SDS011;51146;50.274;19.000;2022-07-04T11:27:16;7.95;;;4.70;;
64716;SDS011;51146;50.274;19.000;2022-07-04T11:29:52;3.97;;;3.53;;
64716;SDS011;51146;50.274;19.000;2022-07-04T11:32:21;4.20;;;3.80;;
64716;SDS011;51146;50.274;19.000;2022-07-04T11:34:56;5.55;;;4.18;;
64716;SDS011;51146;50.274;19.000;2022-07-04T11:37:22;4.38;;;3.95;;
64716;SDS011;51146;50.274;19.000;2022-07-04T11:39:53;6.63;;;4.47;;
64716;SDS011;51146;50.274;19.000;2022-07-04T11:45:48;4.40;;;4.00;;
64716;SDS011;51146;50.274;19.000;2022-07-04T11:48:22;5.25;;;4.75;;
64716;SDS011;51146;50.274;19.000;2022-07-04T11:50:50;6.40;;;4.65;;
64716;SDS011;51146;50.274;19.000;2022-07-04T11:53:17;6.30;;;4.70;;
64716;SDS011;51146;50.274;19.000;2022-07-04T11:55:52;5.15;;;4.65;;
64716;SDS011;51146;50.274;19.000;2022-07-04T11:58:20;9.13;;;5.45;;
64716;SDS011;51146;50.274;19.000;2022-07-04T12:00:48;5.55;;;4.63;;
64716;SDS011;51146;50.274;19.000;2022-07-04T12:03:15;7.72;;;5.20;;
64716;SDS011;51146;50.274;19.000;2022-07-04T12:05:42;6.97;;;4.78;;
64716;SDS011;51146;50.274;19.000;2022-07-04T12:08:10;5.57;;;5.03;;
64716;SDS011;51146;50.274;19.000;2022-07-04T12:10:52;6.38;;;5.07;;
64716;SDS011;51146;50.274;19.000;2022-07-04T12:13:19;5.60;;;5.10;;
64716;SDS011;51146;50.274;19.000;2022-07-04T12:15:47;5.18;;;4.53;;
64716;SDS011;51146;50.274;19.000;2022-07-04T12:18:19;6.78;;;4.25;;
64716;SDS011;51146;50.274;19.000;2022-07-04T12:20:50;4.95;;;4.35;;
64716;SDS011;51146;50.274;19.000;2022-07-04T12:23:19;6.97;;;4.25;;
64716;SDS011;51146;50.274;19.000;2022-07-04T12:25:48;6.38;;;4.32;;
64716;SDS011;51146;50.274;19.000;2022-07-04T12:28:16;5.80;;;4.43;;
64716;SDS011;51146;50.274;19.000;2022-07-04T12:33:19;3.70;;;3.40;;
64716;SDS011;51146;50.274;19.000;2022-07-04T12:35:48;3.67;;;3.38;;
64716;SDS011;51146;50.274;19.000;2022-07-04T12:46:05;4.97;;;3.30;;
64716;SDS011;51146;50.274;19.000;2022-07-04T12:48:37;4.90;;;3.38;;
64716;SDS011;51146;50.274;19.000;2022-07-04T12:53:39;3.83;;;3.53;;
64716;SDS011;51146;50.274;19.000;2022-07-04T12:56:08;4.70;;;3.80;;
64716;SDS011;51146;50.274;19.000;2022-07-04T13:01:03;4.72;;;3.58;;
64716;SDS011;51146;50.274;19.000;2022-07-04T13:03:29;4.75;;;4.20;;
64716;SDS011;51146;50.274;19.000;2022-07-04T13:05:56;5.10;;;4.20;;
64716;SDS011;51146;50.274;19.000;2022-07-04T13:08:23;7.68;;;4.30;;
64716;SDS011;51146;50.274;19.000;2022-07-04T13:10:50;5.63;;;3.95;;
64716;SDS011;51146;50.274;19.000;2022-07-04T13:13:37;4.35;;;3.90;;
64716;SDS011;51146;50.274;19.000;2022-07-04T13:16:04;5.00;;;4.55;;
64716;SDS011;51146;50.274;19.000;2022-07-04T13:18:30;4.13;;;3.75;;
64716;SDS011;51146;50.274;19.000;2022-07-04T13:20:57;5.30;;;4.25;;
64716;SDS011;51146;50.274;19.000;2022-07-04T13:23:24;4.50;;;4.10;;
64716;SDS011;51146;50.274;19.000;2022-07-04T13:25:52;4.55;;;4.13;;
64716;SDS011;51146;50.274;19.000;2022-07-04T13:28:19;5.20;;;4.53;;
64716;SDS011;51146;50.274;19.000;2022-07-04T13:30:46;4.70;;;3.92;;
64716;SDS011;51146;50.274;19.000;2022-07-04T13:33:14;4.25;;;3.90;;
64716;SDS011;51146;50.274;19.000;2022-07-04T13:35:42;6.37;;;4.63;;
64716;SDS011;51146;50.274;19.000;2022-07-04T13:38:10;6.65;;;4.72;;
64716;SDS011;51146;50.274;19.000;2022-07-04T13:40:37;6.17;;;3.83;;
64716;SDS011;51146;50.274;19.000;2022-07-04T13:43:04;5.55;;;5.03;;
64716;SDS011;51146;50.274;19.000;2022-07-04T13:45:37;7.68;;;4.72;;
64716;SDS011;51146;50.274;19.000;2022-07-04T13:48:07;5.50;;;4.45;;
64716;SDS011;51146;50.274;19.000;2022-07-04T13:50:35;5.65;;;5.07;;
64716;SDS011;51146;50.274;19.000;2022-07-04T13:53:04;4.82;;;4.10;;
64716;SDS011;51146;50.274;19.000;2022-07-04T13:55:33;5.13;;;4.53;;
64716;SDS011;51146;50.274;19.000;2022-07-04T13:58:05;4.70;;;4.15;;
64716;SDS011;51146;50.274;19.000;2022-07-04T14:00:34;6.38;;;4.18;;
64716;SDS011;51146;50.274;19.000;2022-07-04T14:05:30;3.80;;;3.50;;
64716;SDS011;51146;50.274;19.000;2022-07-04T14:10:25;4.55;;;3.88;;
64716;SDS011;51146;50.274;19.000;2022-07-04T14:12:52;5.20;;;3.80;;
64716;SDS011;51146;50.274;19.000;2022-07-04T14:15:18;5.20;;;4.00;;
64716;SDS011;51146;50.274;19.000;2022-07-04T14:17:46;3.65;;;3.35;;
64716;SDS011;51146;50.274;19.000;2022-07-04T14:20:13;4.55;;;4.15;;
64716;SDS011;51146;50.274;19.000;2022-07-04T14:22:40;3.40;;;3.10;;
64716;SDS011;51146;50.274;19.000;2022-07-04T14:25:07;3.40;;;3.08;;
64716;SDS011;51146;50.274;19.000;2022-07-04T14:27:34;3.25;;;2.35;;
64716;SDS011;51146;50.274;19.000;2022-07-04T14:30:02;5.45;;;2.78;;
64716;SDS011;51146;50.274;19.000;2022-07-04T14:32:31;2.70;;;2.17;;
64716;SDS011;51146;50.274;19.000;2022-07-04T14:34:58;3.65;;;1.92;;
64716;SDS011;51146;50.274;19.000;2022-07-04T14:37:24;2.38;;;1.90;;
64716;SDS011;51146;50.274;19.000;2022-07-04T14:39:51;4.45;;;2.00;;
64716;SDS011;51146;50.274;19.000;2022-07-04T14:42:18;3.47;;;2.38;;
64716;SDS011;51146;50.274;19.000;2022-07-04T14:44:45;3.58;;;2.38;;
64716;SDS011;51146;50.274;19.000;2022-07-04T14:47:11;2.50;;;1.95;;
64716;SDS011;51146;50.274;19.000;2022-07-04T14:49:38;2.95;;;2.00;;
64716;SDS011;51146;50.274;19.000;2022-07-04T14:52:06;4.50;;;2.65;;
64716;SDS011;51146;50.274;19.000;2022-07-04T14:54:33;2.95;;;2.17;;
64716;SDS011;51146;50.274;19.000;2022-07-04T14:57:00;4.43;;;2.60;;
64716;SDS011;51146;50.274;19.000;2022-07-04T14:59:28;5.72;;;2.38;;
64716;SDS011;51146;50.274;19.000;2022-07-04T15:01:54;3.85;;;3.47;;
64716;SDS011;51146;50.274;19.000;2022-07-04T15:04:22;4.65;;;2.22;;
64716;SDS011;51146;50.274;19.000;2022-07-04T15:06:48;2.33;;;2.05;;
64716;SDS011;51146;50.274;19.000;2022-07-04T15:09:15;2.80;;;2.20;;
64716;SDS011;51146;50.274;19.000;2022-07-04T15:11:42;2.67;;;2.25;;
64716;SDS011;51146;50.274;19.000;2022-07-04T15:14:11;2.92;;;2.47;;
64716;SDS011;51146;50.274;19.000;2022-07-04T15:16:38;3.00;;;2.30;;
64716;SDS011;51146;50.274;19.000;2022-07-04T15:19:05;4.32;;;2.75;;
64716;SDS011;51146;50.274;19.000;2022-07-04T15:21:33;6.82;;;2.28;;
64716;SDS011;51146;50.274;19.000;2022-07-04T15:24:19;2.40;;;1.95;;
64716;SDS011;51146;50.274;19.000;2022-07-04T15:26:46;4.55;;;2.63;;
64716;SDS011;51146;50.274;19.000;2022-07-04T15:29:16;5.05;;;2.50;;
64716;SDS011;51146;50.274;19.000;2022-07-04T15:31:45;3.58;;;2.50;;
64716;SDS011;51146;50.274;19.000;2022-07-04T15:34:12;2.92;;;2.20;;
64716;SDS011;51146;50.274;19.000;2022-07-04T15:36:40;3.08;;;2.22;;
64716;SDS011;51146;50.274;19.000;2022-07-04T15:39:11;2.97;;;2.58;;
64716;SDS011;51146;50.274;19.000;2022-07-04T15:41:39;10.07;;;2.80;;
64716;SDS011;51146;50.274;19.000;2022-07-04T15:44:06;2.72;;;2.50;;
64716;SDS011;51146;50.274;19.000;2022-07-04T15:46:34;4.75;;;2.70;;
64716;SDS011;51146;50.274;19.000;2022-07-04T15:49:03;2.78;;;2.50;;
64716;SDS011;51146;50.274;19.000;2022-07-04T15:51:37;3.95;;;3.17;;
64716;SDS011;51146;50.274;19.000;2022-07-04T15:54:12;3.85;;;2.83;;
64716;SDS011;51146;50.274;19.000;2022-07-04T15:56:39;5.32;;;3.67;;
64716;SDS011;51146;50.274;19.000;2022-07-04T15:59:06;6.97;;;3.58;;
64716;SDS011;51146;50.274;19.000;2022-07-04T16:01:33;5.38;;;3.10;;
64716;SDS011;51146;50.274;19.000;2022-07-04T16:04:00;3.38;;;2.90;;
64716;SDS011;51146;50.274;19.000;2022-07-04T16:06:30;3.75;;;2.72;;
64716;SDS011;51146;50.274;19.000;2022-07-04T16:08:57;3.10;;;2.80;;
64716;SDS011;51146;50.274;19.000;2022-07-04T16:11:24;4.63;;;3.05;;
64716;SDS011;51146;50.274;19.000;2022-07-04T16:13:51;4.53;;;3.20;;
64716;SDS011;51146;50.274;19.000;2022-07-04T16:16:18;5.82;;;3.00;;
64716;SDS011;51146;50.274;19.000;2022-07-04T16:18:45;5.38;;;3.35;;
64716;SDS011;51146;50.274;19.000;2022-07-04T16:21:11;5.75;;;3.30;;